Terminal Aerodrome Forecast
Issued by NWS

Home | Current Version | Previous Version | Text Only | Print | Product List | Glossary On
Versions: 1 2 3 4 5 6 7 8 9 10 11 12 13 14 15
000
FTUS44 KCRP 191335 AAA
TAFALI
TAF AMD
KALI 191335Z 1914/2012 13008KT 5SM BR BKN006 OVC030
     FM191500 16010KT P6SM OVC015
     FM191800 15014G20KT P6SM BKN035
     FM200000 14010KT P6SM OVC025
     FM200400 23008KT 4SM SHRA VCTS OVC015CB
      TEMPO 2004/2008 2SM TSRA BR BKN015CB
     FM201000 30008KT 5SM SHRA BR VCTS BKN012CB=

USA.gov is the U.S. government's official web portal to all federal, state and local government web resources and services.